sensor_id;sensor_type;location;lat;lon;timestamp;pressure;altitude;pressure_sealevel;temperature;humidity
12991;BME280;6560;57.692;11.958;2023-03-26T00:00:45;99390.72;;;10.80;100.00
12991;BME280;6560;57.692;11.958;2023-03-26T00:03:14;99405.72;;;10.65;100.00
12991;BME280;6560;57.692;11.958;2023-03-26T00:05:40;99410.66;;;10.26;100.00
12991;BME280;6560;57.692;11.958;2023-03-26T00:08:07;99402.84;;;10.28;100.00
12991;BME280;6560;57.692;11.958;2023-03-26T00:10:37;99393.53;;;10.51;100.00
12991;BME280;6560;57.692;11.958;2023-03-26T00:13:04;99423.13;;;10.14;100.00
12991;BME280;6560;57.692;11.958;2023-03-26T00:15:31;99371.44;;;10.16;100.00
12991;BME280;6560;57.692;11.958;2023-03-26T00:17:57;99396.16;;;10.51;100.00
12991;BME280;6560;57.692;11.958;2023-03-26T00:20:25;99420.06;;;10.54;100.00
12991;BME280;6560;57.692;11.958;2023-03-26T00:22:52;99421.31;;;10.13;100.00
12991;BME280;6560;57.692;11.958;2023-03-26T00:25:18;99384.91;;;10.06;100.00
12991;BME280;6560;57.692;11.958;2023-03-26T00:27:44;99413.63;;;10.49;100.00
12991;BME280;6560;57.692;11.958;2023-03-26T00:30:10;99411.06;;;10.66;100.00
12991;BME280;6560;57.692;11.958;2023-03-26T00:32:36;99403.50;;;10.56;100.00
12991;BME280;6560;57.692;11.958;2023-03-26T00:35:02;99399.22;;;9.95;100.00
12991;BME280;6560;57.692;11.958;2023-03-26T00:37:28;99409.44;;;10.68;100.00
12991;BME280;6560;57.692;11.958;2023-03-26T00:39:55;99389.59;;;10.43;100.00
12991;BME280;6560;57.692;11.958;2023-03-26T00:42:34;99419.31;;;10.24;100.00
12991;BME280;6560;57.692;11.958;2023-03-26T00:45:00;99380.66;;;9.46;100.00
12991;BME280;6560;57.692;11.958;2023-03-26T00:47:27;99409.78;;;9.49;100.00
12991;BME280;6560;57.692;11.958;2023-03-26T00:49:53;99435.84;;;9.30;100.00
12991;BME280;6560;57.692;11.958;2023-03-26T00:52:20;99433.81;;;9.26;100.00
12991;BME280;6560;57.692;11.958;2023-03-26T00:54:46;99438.88;;;9.52;100.00
12991;BME280;6560;57.692;11.958;2023-03-26T00:57:13;99443.28;;;9.23;100.00
12991;BME280;6560;57.692;11.958;2023-03-26T00:59:39;99441.50;;;9.52;100.00
12991;BME280;6560;57.692;11.958;2023-03-26T01:02:06;99442.50;;;9.54;100.00
12991;BME280;6560;57.692;11.958;2023-03-26T01:04:35;99415.34;;;9.25;100.00
12991;BME280;6560;57.692;11.958;2023-03-26T01:07:09;99442.16;;;9.48;100.00
12991;BME280;6560;57.692;11.958;2023-03-26T01:09:39;99446.69;;;8.50;100.00
12991;BME280;6560;57.692;11.958;2023-03-26T01:12:10;99441.66;;;9.25;100.00
12991;BME280;6560;57.692;11.958;2023-03-26T01:14:38;99441.50;;;9.98;100.00
12991;BME280;6560;57.692;11.958;2023-03-26T01:17:05;99469.38;;;9.34;100.00
12991;BME280;6560;57.692;11.958;2023-03-26T01:20:12;99441.66;;;9.25;100.00
12991;BME280;6560;57.692;11.958;2023-03-26T01:22:40;99442.78;;;9.59;100.00
12991;BME280;6560;57.692;11.958;2023-03-26T01:25:06;99439.56;;;9.04;100.00
12991;BME280;6560;57.692;11.958;2023-03-26T01:27:47;99470.69;;;8.84;100.00
12991;BME280;6560;57.692;11.958;2023-03-26T01:30:33;99446.03;;;8.82;100.00
12991;BME280;6560;57.692;11.958;2023-03-26T01:33:17;99421.47;;;9.40;100.00
12991;BME280;6560;57.692;11.958;2023-03-26T01:41:35;99413.41;;;8.93;100.00
12991;BME280;6560;57.692;11.958;2023-03-26T01:44:32;99441.97;;;9.01;100.00
12991;BME280;6560;57.692;11.958;2023-03-26T01:46:59;99333.13;;;8.98;100.00
12991;BME280;6560;57.692;11.958;2023-03-26T01:52:05;99012.56;;;6.60;100.00
12991;BME280;6560;57.692;11.958;2023-03-26T01:57:17;99415.00;;;9.18;100.00
12991;BME280;6560;57.692;11.958;2023-03-26T02:05:02;99460.78;;;8.24;100.00
12991;BME280;6560;57.692;11.958;2023-03-26T02:10:29;99448.56;;;8.37;100.00
12991;BME280;6560;57.692;11.958;2023-03-26T02:12:57;99443.22;;;9.52;100.00
12991;BME280;6560;57.692;11.958;2023-03-26T02:15:23;99443.69;;;9.59;100.00
12991;BME280;6560;57.692;11.958;2023-03-26T02:17:49;99443.84;;;10.08;100.00
12991;BME280;6560;57.692;11.958;2023-03-26T02:20:17;99427.63;;;10.00;100.00
12991;BME280;6560;57.692;11.958;2023-03-26T02:22:44;99426.47;;;10.26;100.00
12991;BME280;6560;57.692;11.958;2023-03-26T02:25:13;99409.56;;;10.71;100.00
12991;BME280;6560;57.692;11.958;2023-03-26T02:27:41;99452.81;;;10.59;100.00
12991;BME280;6560;57.692;11.958;2023-03-26T02:30:09;99440.34;;;9.93;100.00
12991;BME280;6560;57.692;11.958;2023-03-26T02:32:35;99406.25;;;9.49;100.00
12991;BME280;6560;57.692;11.958;2023-03-26T02:35:01;99445.75;;;10.74;100.00
12991;BME280;6560;57.692;11.958;2023-03-26T02:37:27;99448.38;;;10.74;100.00
12991;BME280;6560;57.692;11.958;2023-03-26T02:39:54;99413.06;;;9.91;100.00
12991;BME280;6560;57.692;11.958;2023-03-26T02:42:20;99444.59;;;10.53;100.00
12991;BME280;6560;57.692;11.958;2023-03-26T02:44:45;99443.03;;;10.56;100.00
12991;BME280;6560;57.692;11.958;2023-03-26T02:47:11;99441.06;;;10.36;100.00
12991;BME280;6560;57.692;11.958;2023-03-26T02:49:36;99437.03;;;10.75;100.00
12991;BME280;6560;57.692;11.958;2023-03-26T02:52:02;99454.72;;;10.29;100.00
12991;BME280;6560;57.692;11.958;2023-03-26T02:54:31;99440.09;;;10.19;100.00
12991;BME280;6560;57.692;11.958;2023-03-26T02:56:57;99428.72;;;10.04;100.00
12991;BME280;6560;57.692;11.958;2023-03-26T02:59:23;99454.06;;;9.87;100.00
12991;BME280;6560;57.692;11.958;2023-03-26T03:01:49;99443.97;;;9.95;100.00
12991;BME280;6560;57.692;11.958;2023-03-26T03:04:14;99476.38;;;9.94;100.00
12991;BME280;6560;57.692;11.958;2023-03-26T03:06:42;99435.28;;;10.59;100.00
12991;BME280;6560;57.692;11.958;2023-03-26T03:09:09;99404.31;;;10.39;100.00
12991;BME280;6560;57.692;11.958;2023-03-26T03:11:36;99469.72;;;9.84;100.00
12991;BME280;6560;57.692;11.958;2023-03-26T03:14:02;99459.88;;;9.51;100.00
12991;BME280;6560;57.692;11.958;2023-03-26T03:16:29;99438.81;;;10.44;100.00
12991;BME280;6560;57.692;11.958;2023-03-26T03:18:54;99465.81;;;10.09;100.00
12991;BME280;6560;57.692;11.958;2023-03-26T03:21:24;99440.91;;;10.49;100.00
12991;BME280;6560;57.692;11.958;2023-03-26T03:23:50;99448.06;;;9.30;100.00
12991;BME280;6560;57.692;11.958;2023-03-26T03:26:18;99461.63;;;9.81;100.00
12991;BME280;6560;57.692;11.958;2023-03-26T03:28:47;99445.84;;;9.52;100.00
12991;BME280;6560;57.692;11.958;2023-03-26T03:31:13;99439.06;;;9.70;100.00
12991;BME280;6560;57.692;11.958;2023-03-26T03:33:38;99414.97;;;9.04;100.00
12991;BME280;6560;57.692;11.958;2023-03-26T03:36:06;99471.09;;;9.04;100.00
12991;BME280;6560;57.692;11.958;2023-03-26T03:38:36;99464.03;;;9.18;100.00
12991;BME280;6560;57.692;11.958;2023-03-26T03:41:02;99433.56;;;9.22;100.00
12991;BME280;6560;57.692;11.958;2023-03-26T03:43:28;99473.72;;;9.63;100.00
12991;BME280;6560;57.692;11.958;2023-03-26T03:45:53;99463.47;;;9.98;100.00
12991;BME280;6560;57.692;11.958;2023-03-26T03:48:19;99443.16;;;9.21;100.00
12991;BME280;6560;57.692;11.958;2023-03-26T03:50:44;99464.13;;;9.94;100.00
12991;BME280;6560;57.692;11.958;2023-03-26T03:53:10;99476.63;;;9.68;100.00
12991;BME280;6560;57.692;11.958;2023-03-26T03:55:40;99453.41;;;9.91;100.00
12991;BME280;6560;57.692;11.958;2023-03-26T03:58:06;99479.72;;;9.91;100.00
12991;BME280;6560;57.692;11.958;2023-03-26T04:00:34;99482.97;;;9.27;100.00
12991;BME280;6560;57.692;11.958;2023-03-26T04:03:02;99470.91;;;9.16;100.00
12991;BME280;6560;57.692;11.958;2023-03-26T04:05:31;99455.53;;;9.82;100.00
12991;BME280;6560;57.692;11.958;2023-03-26T04:07:56;99496.66;;;9.80;100.00
12991;BME280;6560;57.692;11.958;2023-03-26T04:10:23;99455.50;;;9.37;100.00
12991;BME280;6560;57.692;11.958;2023-03-26T04:12:50;99485.53;;;9.55;100.00
12991;BME280;6560;57.692;11.958;2023-03-26T04:15:15;99467.25;;;9.73;100.00
12991;BME280;6560;57.692;11.958;2023-03-26T04:17:41;99498.16;;;9.91;100.00
12991;BME280;6560;57.692;11.958;2023-03-26T04:20:09;99502.00;;;9.08;100.00
12991;BME280;6560;57.692;11.958;2023-03-26T04:22:39;99513.13;;;8.62;100.00
12991;BME280;6560;57.692;11.958;2023-03-26T04:25:07;99503.19;;;8.99;100.00
12991;BME280;6560;57.692;11.958;2023-03-26T04:27:33;99473.53;;;9.75;100.00
12991;BME280;6560;57.692;11.958;2023-03-26T04:30:01;99486.97;;;9.50;100.00
12991;BME280;6560;57.692;11.958;2023-03-26T04:32:29;99496.66;;;9.80;100.00
12991;BME280;6560;57.692;11.958;2023-03-26T04:34:59;99508.22;;;9.98;100.00
12991;BME280;6560;57.692;11.958;2023-03-26T04:37:28;99507.81;;;9.76;100.00
12991;BME280;6560;57.692;11.958;2023-03-26T04:40:01;99511.06;;;8.71;100.00
12991;BME280;6560;57.692;11.958;2023-03-26T04:42:35;99507.03;;;9.63;100.00
12991;BME280;6560;57.692;11.958;2023-03-26T04:45:03;99524.69;;;9.36;100.00
12991;BME280;6560;57.692;11.958;2023-03-26T04:47:30;99534.13;;;9.32;100.00
12991;BME280;6560;57.692;11.958;2023-03-26T04:49:55;99510.50;;;9.92;100.00
12991;BME280;6560;57.692;11.958;2023-03-26T04:52:21;99523.72;;;9.63;100.00
12991;BME280;6560;57.692;11.958;2023-03-26T04:54:46;99492.59;;;9.41;100.00
12991;BME280;6560;57.692;11.958;2023-03-26T04:57:20;99522.03;;;9.06;100.00
12991;BME280;6560;57.692;11.958;2023-03-26T04:59:47;99528.78;;;9.31;100.00
12991;BME280;6560;57.692;11.958;2023-03-26T05:02:14;99474.63;;;9.64;100.00
12991;BME280;6560;57.692;11.958;2023-03-26T05:04:40;99533.72;;;8.97;100.00
12991;BME280;6560;57.692;11.958;2023-03-26T05:07:09;99505.56;;;9.53;100.00
12991;BME280;6560;57.692;11.958;2023-03-26T05:09:35;99487.69;;;9.33;100.00
12991;BME280;6560;57.692;11.958;2023-03-26T05:12:01;99519.19;;;8.89;100.00
12991;BME280;6560;57.692;11.958;2023-03-26T05:14:26;99515.59;;;9.01;100.00
12991;BME280;6560;57.692;11.958;2023-03-26T05:16:52;99533.38;;;9.20;100.00
12991;BME280;6560;57.692;11.958;2023-03-26T05:19:18;99512.00;;;9.43;100.00
12991;BME280;6560;57.692;11.958;2023-03-26T05:21:43;99538.78;;;8.66;100.00
12991;BME280;6560;57.692;11.958;2023-03-26T05:24:10;99503.31;;;8.87;100.00
12991;BME280;6560;57.692;11.958;2023-03-26T05:26:35;99537.72;;;9.05;100.00
12991;BME280;6560;57.692;11.958;2023-03-26T05:29:02;99531.56;;;9.19;100.00
12991;BME280;6560;57.692;11.958;2023-03-26T05:31:29;99534.50;;;9.38;100.00
12991;BME280;6560;57.692;11.958;2023-03-26T05:33:55;99529.94;;;9.21;100.00
12991;BME280;6560;57.692;11.958;2023-03-26T05:36:21;99537.44;;;9.57;100.00
12991;BME280;6560;57.692;11.958;2023-03-26T05:38:47;99530.53;;;9.02;100.00
12991;BME280;6560;57.692;11.958;2023-03-26T05:41:15;99530.03;;;8.80;100.00
12991;BME280;6560;57.692;11.958;2023-03-26T05:43:41;99521.72;;;9.30;100.00
12991;BME280;6560;57.692;11.958;2023-03-26T05:46:08;99530.53;;;8.60;100.00
12991;BME280;6560;57.692;11.958;2023-03-26T05:48:33;99531.06;;;8.41;100.00
12991;BME280;6560;57.692;11.958;2023-03-26T05:50:59;99562.78;;;8.44;100.00
12991;BME280;6560;57.692;11.958;2023-03-26T05:53:26;99577.09;;;8.90;100.00
12991;BME280;6560;57.692;11.958;2023-03-26T05:55:52;99560.03;;;9.11;100.00
12991;BME280;6560;57.692;11.958;2023-03-26T05:58:28;99580.34;;;8.45;100.00
12991;BME280;6560;57.692;11.958;2023-03-26T06:01:06;99573.50;;;9.31;100.00
12991;BME280;6560;57.692;11.958;2023-03-26T06:03:38;99540.75;;;9.40;100.00
12991;BME280;6560;57.692;11.958;2023-03-26T06:06:13;99553.47;;;9.77;100.00
12991;BME280;6560;57.692;11.958;2023-03-26T06:08:42;99561.06;;;10.02;100.00
12991;BME280;6560;57.692;11.958;2023-03-26T06:11:09;99580.97;;;9.67;100.00
12991;BME280;6560;57.692;11.958;2023-03-26T06:13:36;99591.16;;;9.33;100.00
12991;BME280;6560;57.692;11.958;2023-03-26T06:16:02;99581.53;;;9.91;100.00
12991;BME280;6560;57.692;11.958;2023-03-26T06:18:27;99594.94;;;9.51;100.00
12991;BME280;6560;57.692;11.958;2023-03-26T06:20:53;99583.22;;;9.61;100.00
12991;BME280;6560;57.692;11.958;2023-03-26T06:23:19;99602.09;;;10.13;100.00
12991;BME280;6560;57.692;11.958;2023-03-26T06:25:44;99599.78;;;9.45;100.00
12991;BME280;6560;57.692;11.958;2023-03-26T06:28:11;99613.03;;;10.04;100.00
12991;BME280;6560;57.692;11.958;2023-03-26T06:30:37;99616.25;;;9.85;100.00
12991;BME280;6560;57.692;11.958;2023-03-26T06:33:03;99625.88;;;9.55;100.00
12991;BME280;6560;57.692;11.958;2023-03-26T06:35:29;99623.00;;;9.80;100.00
12991;BME280;6560;57.692;11.958;2023-03-26T06:37:55;99632.41;;;9.62;100.00
12991;BME280;6560;57.692;11.958;2023-03-26T06:40:21;99643.34;;;8.85;100.00
12991;BME280;6560;57.692;11.958;2023-03-26T06:42:46;99642.19;;;8.94;100.00
12991;BME280;6560;57.692;11.958;2023-03-26T06:45:12;99615.50;;;8.34;100.00
12991;BME280;6560;57.692;11.958;2023-03-26T06:47:38;99654.28;;;8.64;100.00
12991;BME280;6560;57.692;11.958;2023-03-26T06:50:03;99631.84;;;8.56;100.00
12991;BME280;6560;57.692;11.958;2023-03-26T06:52:29;99645.72;;;8.95;100.00
12991;BME280;6560;57.692;11.958;2023-03-26T06:54:55;99633.72;;;8.85;100.00
12991;BME280;6560;57.692;11.958;2023-03-26T06:57:20;99662.09;;;9.04;100.00
12991;BME280;6560;57.692;11.958;2023-03-26T06:59:46;99640.94;;;9.02;100.00
12991;BME280;6560;57.692;11.958;2023-03-26T07:02:12;99663.56;;;9.13;100.00
12991;BME280;6560;57.692;11.958;2023-03-26T07:04:37;99616.34;;;9.15;100.00
12991;BME280;6560;57.692;11.958;2023-03-26T07:07:03;99667.44;;;9.05;100.00
12991;BME280;6560;57.692;11.958;2023-03-26T07:09:29;99663.19;;;9.07;100.00
12991;BME280;6560;57.692;11.958;2023-03-26T07:11:55;99632.06;;;9.28;100.00
12991;BME280;6560;57.692;11.958;2023-03-26T07:14:22;99599.09;;;9.05;100.00
12991;BME280;6560;57.692;11.958;2023-03-26T07:16:49;99569.09;;;8.61;100.00
12991;BME280;6560;57.692;11.958;2023-03-26T07:19:15;99656.81;;;8.36;100.00
12991;BME280;6560;57.692;11.958;2023-03-26T07:21:41;99701.16;;;8.58;100.00
12991;BME280;6560;57.692;11.958;2023-03-26T07:24:09;99670.94;;;8.78;100.00
12991;BME280;6560;57.692;11.958;2023-03-26T07:26:55;99682.88;;;9.14;100.00
12991;BME280;6560;57.692;11.958;2023-03-26T07:29:45;99689.34;;;8.78;100.00
12991;BME280;6560;57.692;11.958;2023-03-26T07:32:20;99608.03;;;9.22;100.00
12991;BME280;6560;57.692;11.958;2023-03-26T07:35:04;99649.72;;;9.44;100.00
12991;BME280;6560;57.692;11.958;2023-03-26T07:43:05;99683.44;;;9.93;100.00
12991;BME280;6560;57.692;11.958;2023-03-26T07:45:36;99702.75;;;9.37;100.00
12991;BME280;6560;57.692;11.958;2023-03-26T07:48:14;99690.94;;;9.30;100.00
12991;BME280;6560;57.692;11.958;2023-03-26T07:50:41;99696.16;;;9.02;100.00
12991;BME280;6560;57.692;11.958;2023-03-26T07:53:07;99687.38;;;8.89;100.00
12991;BME280;6560;57.692;11.958;2023-03-26T07:55:58;99681.44;;;8.91;100.00
12991;BME280;6560;57.692;11.958;2023-03-26T08:07:09;99683.91;;;9.86;100.00
12991;BME280;6560;57.692;11.958;2023-03-26T08:09:51;99695.19;;;9.56;100.00
12991;BME280;6560;57.692;11.958;2023-03-26T08:12:27;99697.44;;;9.50;100.00
12991;BME280;6560;57.692;11.958;2023-03-26T08:17:43;99661.94;;;10.15;100.00
12991;BME280;6560;57.692;11.958;2023-03-26T08:22:49;99686.28;;;8.98;100.00
12991;BME280;6560;57.692;11.958;2023-03-26T08:25:30;99704.16;;;9.87;100.00
12991;BME280;6560;57.692;11.958;2023-03-26T08:31:13;99641.97;;;9.89;100.00
12991;BME280;6560;57.692;11.958;2023-03-26T08:33:39;99686.81;;;9.91;100.00
12991;BME280;6560;57.692;11.958;2023-03-26T08:36:07;99706.69;;;10.00;100.00
12991;BME280;6560;57.692;11.958;2023-03-26T08:38:33;99694.84;;;9.65;100.00
12991;BME280;6560;57.692;11.958;2023-03-26T08:41:08;99722.41;;;9.56;100.00
12991;BME280;6560;57.692;11.958;2023-03-26T08:46:50;99734.38;;;9.10;100.00
12991;BME280;6560;57.692;11.958;2023-03-26T08:58:21;99735.94;;;9.90;100.00
12991;BME280;6560;57.692;11.958;2023-03-26T09:01:23;99737.59;;;9.06;100.00
12991;BME280;6560;57.692;11.958;2023-03-26T09:15:19;99736.31;;;8.73;100.00
12991;BME280;6560;57.692;11.958;2023-03-26T09:23:51;99778.72;;;10.01;100.00
12991;BME280;6560;57.692;11.958;2023-03-26T09:30:00;99772.00;;;10.49;100.00
12991;BME280;6560;57.692;11.958;2023-03-26T09:36:03;99770.16;;;9.63;100.00
12991;BME280;6560;57.692;11.958;2023-03-26T09:44:32;99802.13;;;9.96;100.00
12991;BME280;6560;57.692;11.958;2023-03-26T09:58:06;99813.78;;;9.59;100.00
12991;BME280;6560;57.692;11.958;2023-03-26T10:00:46;99811.44;;;9.91;100.00
12991;BME280;6560;57.692;11.958;2023-03-26T10:09:12;99777.50;;;9.27;100.00
12991;BME280;6560;57.692;11.958;2023-03-26T10:12:05;99790.84;;;9.43;100.00
12991;BME280;6560;57.692;11.958;2023-03-26T10:14:49;99815.78;;;10.04;100.00
12991;BME280;6560;57.692;11.958;2023-03-26T10:31:31;99833.38;;;10.05;100.00
12991;BME280;6560;57.692;11.958;2023-03-26T10:34:17;99815.53;;;9.86;100.00
12991;BME280;6560;57.692;11.958;2023-03-26T10:55:43;99841.84;;;9.19;100.00
12991;BME280;6560;57.692;11.958;2023-03-26T11:00:46;99852.97;;;9.28;100.00
12991;BME280;6560;57.692;11.958;2023-03-26T11:06:02;99871.09;;;9.37;100.00
12991;BME280;6560;57.692;11.958;2023-03-26T11:11:44;99873.66;;;9.89;100.00
12991;BME280;6560;57.692;11.958;2023-03-26T11:14:38;99870.75;;;9.58;100.00
12991;BME280;6560;57.692;11.958;2023-03-26T11:23:01;99894.06;;;9.93;100.00
12991;BME280;6560;57.692;11.958;2023-03-26T11:31:27;99895.84;;;9.53;100.00
12991;BME280;6560;57.692;11.958;2023-03-26T11:34:01;99863.78;;;9.06;100.00
12991;BME280;6560;57.692;11.958;2023-03-26T11:36:42;99901.81;;;9.77;100.00
12991;BME280;6560;57.692;11.958;2023-03-26T11:39:14;99915.97;;;9.13;100.00
12991;BME280;6560;57.692;11.958;2023-03-26T11:41:43;99891.06;;;9.87;100.00
12991;BME280;6560;57.692;11.958;2023-03-26T11:44:24;99901.09;;;9.67;100.00
12991;BME280;6560;57.692;11.958;2023-03-26T11:46:57;99907.69;;;9.60;100.00
12991;BME280;6560;57.692;11.958;2023-03-26T11:49:25;99901.50;;;10.55;100.00
12991;BME280;6560;57.692;11.958;2023-03-26T11:51:53;99907.38;;;9.82;100.00
12991;BME280;6560;57.692;11.958;2023-03-26T11:54:19;99902.94;;;10.22;100.00
12991;BME280;6560;57.692;11.958;2023-03-26T11:56:51;99913.53;;;9.82;100.00
12991;BME280;6560;57.692;11.958;2023-03-26T11:59:23;99856.22;;;9.50;100.00
12991;BME280;6560;57.692;11.958;2023-03-26T12:01:56;99920.34;;;9.52;100.00
12991;BME280;6560;57.692;11.958;2023-03-26T12:04:44;99935.94;;;9.23;100.00
12991;BME280;6560;57.692;11.958;2023-03-26T12:10:24;99915.88;;;8.99;100.00
12991;BME280;6560;57.692;11.958;2023-03-26T12:12:53;99945.19;;;8.92;100.00
12991;BME280;6560;57.692;11.958;2023-03-26T12:15:20;99941.56;;;8.40;100.00
12991;BME280;6560;57.692;11.958;2023-03-26T12:17:49;99955.84;;;9.33;100.00
12991;BME280;6560;57.692;11.958;2023-03-26T12:22:57;99944.63;;;9.88;100.00
12991;BME280;6560;57.692;11.958;2023-03-26T12:25:37;99942.34;;;8.89;100.00
12991;BME280;6560;57.692;11.958;2023-03-26T12:28:23;99943.00;;;9.90;100.00
12991;BME280;6560;57.692;11.958;2023-03-26T12:31:02;99942.63;;;9.57;100.00
12991;BME280;6560;57.692;11.958;2023-03-26T12:33:30;99950.09;;;10.17;100.00
12991;BME280;6560;57.692;11.958;2023-03-26T12:36:16;99950.44;;;10.79;100.00
12991;BME280;6560;57.692;11.958;2023-03-26T12:38:41;99958.81;;;10.31;100.00
12991;BME280;6560;57.692;11.958;2023-03-26T12:41:09;99965.81;;;9.76;100.00
12991;BME280;6560;57.692;11.958;2023-03-26T12:43:50;99968.94;;;9.84;100.00
12991;BME280;6560;57.692;11.958;2023-03-26T12:48:55;99947.03;;;9.85;100.00
12991;BME280;6560;57.692;11.958;2023-03-26T12:51:48;99980.69;;;9.76;100.00
12991;BME280;6560;57.692;11.958;2023-03-26T13:06:44;100008.69;;;8.98;100.00
12991;BME280;6560;57.692;11.958;2023-03-26T13:08:41;100007.56;;;9.58;100.00
12991;BME280;6560;57.692;11.958;2023-03-26T13:11:25;100011.66;;;8.77;100.00
12991;BME280;6560;57.692;11.958;2023-03-26T13:13:59;99991.44;;;8.76;100.00
12991;BME280;6560;57.692;11.958;2023-03-26T13:22:16;100014.78;;;10.00;100.00
12991;BME280;6560;57.692;11.958;2023-03-26T13:30:37;100028.59;;;9.32;100.00
12991;BME280;6560;57.692;11.958;2023-03-26T13:41:55;100051.72;;;8.50;100.00
12991;BME280;6560;57.692;11.958;2023-03-26T13:44:47;100038.56;;;8.62;100.00
12991;BME280;6560;57.692;11.958;2023-03-26T13:47:20;100054.88;;;8.33;100.00
12991;BME280;6560;57.692;11.958;2023-03-26T13:49:56;100074.72;;;7.83;100.00
12991;BME280;6560;57.692;11.958;2023-03-26T13:52:42;100055.34;;;8.64;100.00
12991;BME280;6560;57.692;11.958;2023-03-26T13:55:26;100021.72;;;8.47;100.00
12991;BME280;6560;57.692;11.958;2023-03-26T14:00:26;100036.94;;;8.39;100.00
12991;BME280;6560;57.692;11.958;2023-03-26T14:03:22;100076.19;;;8.86;100.00
12991;BME280;6560;57.692;11.958;2023-03-26T14:05:53;100058.16;;;8.67;100.00
12991;BME280;6560;57.692;11.958;2023-03-26T14:08:27;100083.34;;;8.28;100.00
12991;BME280;6560;57.692;11.958;2023-03-26T14:11:00;100037.06;;;7.47;100.00
12991;BME280;6560;57.692;11.958;2023-03-26T14:16:23;100075.50;;;7.47;100.00
12991;BME280;6560;57.692;11.958;2023-03-26T14:22:15;100041.59;;;8.43;100.00
12991;BME280;6560;57.692;11.958;2023-03-26T14:41:46;100106.19;;;8.29;100.00
12991;BME280;6560;57.692;11.958;2023-03-26T14:47:01;100064.91;;;7.92;100.00
12991;BME280;6560;57.692;11.958;2023-03-26T14:52:47;100082.13;;;8.47;100.00
12991;BME280;6560;57.692;11.958;2023-03-26T15:26:48;100110.81;;;8.32;100.00
12991;BME280;6560;57.692;11.958;2023-03-26T15:38:03;100147.88;;;8.71;100.00
12991;BME280;6560;57.692;11.958;2023-03-26T15:41:00;100157.25;;;7.53;100.00
12991;BME280;6560;57.692;11.958;2023-03-26T15:49:14;100151.81;;;8.90;100.00
12991;BME280;6560;57.692;11.958;2023-03-26T15:52:04;100150.53;;;8.36;100.00
12991;BME280;6560;57.692;11.958;2023-03-26T15:55:02;100170.72;;;8.26;100.00
12991;BME280;6560;57.692;11.958;2023-03-26T15:57:40;100160.09;;;8.48;100.00
12991;BME280;6560;57.692;11.958;2023-03-26T16:00:21;100158.78;;;8.89;100.00
12991;BME280;6560;57.692;11.958;2023-03-26T16:03:23;100171.31;;;8.57;100.00
12991;BME280;6560;57.692;11.958;2023-03-26T16:11:47;100175.19;;;8.50;100.00
12991;BME280;6560;57.692;11.958;2023-03-26T16:17:02;100170.97;;;9.12;100.00
12991;BME280;6560;57.692;11.958;2023-03-26T16:22:06;100186.34;;;8.24;100.00
12991;BME280;6560;57.692;11.958;2023-03-26T16:27:38;100193.19;;;8.92;100.00
12991;BME280;6560;57.692;11.958;2023-03-26T16:32:35;100168.25;;;8.87;100.00
12991;BME280;6560;57.692;11.958;2023-03-26T16:54:05;100223.91;;;8.00;100.00
12991;BME280;6560;57.692;11.958;2023-03-26T17:02:24;100226.09;;;8.29;100.00
12991;BME280;6560;57.692;11.958;2023-03-26T17:04:56;100245.50;;;8.19;100.00
12991;BME280;6560;57.692;11.958;2023-03-26T17:07:34;100227.88;;;8.40;100.00
12991;BME280;6560;57.692;11.958;2023-03-26T17:10:13;100227.06;;;7.96;100.00
12991;BME280;6560;57.692;11.958;2023-03-26T17:12:43;100248.63;;;7.58;100.00
12991;BME280;6560;57.692;11.958;2023-03-26T17:15:16;100248.50;;;7.90;100.00
12991;BME280;6560;57.692;11.958;2023-03-26T17:18:16;100256.88;;;7.75;100.00
12991;BME280;6560;57.692;11.958;2023-03-26T17:20:58;100194.41;;;7.81;100.00
12991;BME280;6560;57.692;11.958;2023-03-26T17:26:20;100186.63;;;7.71;100.00
12991;BME280;6560;57.692;11.958;2023-03-26T17:43:09;100263.84;;;8.53;100.00
12991;BME280;6560;57.692;11.958;2023-03-26T17:45:37;100246.59;;;8.56;100.00
12991;BME280;6560;57.692;11.958;2023-03-26T17:48:13;100263.31;;;7.78;100.00
12991;BME280;6560;57.692;11.958;2023-03-26T17:50:58;100234.56;;;7.80;100.00
12991;BME280;6560;57.692;11.958;2023-03-26T17:53:30;100278.78;;;8.09;100.00
12991;BME280;6560;57.692;11.958;2023-03-26T17:56:01;100285.44;;;8.15;100.00
12991;BME280;6560;57.692;11.958;2023-03-26T17:58:33;100287.78;;;8.34;100.00
12991;BME280;6560;57.692;11.958;2023-03-26T18:03:40;100288.84;;;8.14;100.00
12991;BME280;6560;57.692;11.958;2023-03-26T18:17:42;100290.22;;;8.21;100.00
12991;BME280;6560;57.692;11.958;2023-03-26T18:20:25;100298.41;;;8.02;100.00
12991;BME280;6560;57.692;11.958;2023-03-26T18:22:52;100313.47;;;7.49;100.00
12991;BME280;6560;57.692;11.958;2023-03-26T18:25:28;100192.31;;;7.32;100.00
12991;BME280;6560;57.692;11.958;2023-03-26T18:27:56;100321.03;;;8.12;100.00
12991;BME280;6560;57.692;11.958;2023-03-26T18:30:23;100322.13;;;7.48;100.00
12991;BME280;6560;57.692;11.958;2023-03-26T18:35:26;100320.31;;;8.02;100.00
12991;BME280;6560;57.692;11.958;2023-03-26T18:37:59;100210.16;;;7.47;100.00
12991;BME280;6560;57.692;11.958;2023-03-26T18:40:39;100326.13;;;7.98;100.00
12991;BME280;6560;57.692;11.958;2023-03-26T18:43:14;100302.38;;;7.97;100.00
12991;BME280;6560;57.692;11.958;2023-03-26T18:45:42;100303.34;;;8.21;100.00
12991;BME280;6560;57.692;11.958;2023-03-26T18:48:22;100299.47;;;8.49;100.00
12991;BME280;6560;57.692;11.958;2023-03-26T18:51:03;100329.22;;;7.93;100.00
12991;BME280;6560;57.692;11.958;2023-03-26T18:53:35;100335.53;;;8.07;100.00
12991;BME280;6560;57.692;11.958;2023-03-26T18:56:38;100331.44;;;8.44;100.00
12991;BME280;6560;57.692;11.958;2023-03-26T18:59:05;100309.06;;;8.15;100.00
12991;BME280;6560;57.692;11.958;2023-03-26T19:01:34;100312.75;;;8.29;100.00
12991;BME280;6560;57.692;11.958;2023-03-26T19:04:04;100329.41;;;8.74;100.00